sensor_id;sensor_type;location;lat;lon;timestamp;temperature;humidity
5276;DHT22;2661;50.786;12.728;2023-12-20T00:00:59;4.80;99.90
5276;DHT22;2661;50.786;12.728;2023-12-20T00:03:26;4.80;99.90
5276;DHT22;2661;50.786;12.728;2023-12-20T00:05:52;4.80;99.90
5276;DHT22;2661;50.786;12.728;2023-12-20T00:08:19;4.70;99.90
5276;DHT22;2661;50.786;12.728;2023-12-20T00:10:46;4.70;99.90
5276;DHT22;2661;50.786;12.728;2023-12-20T00:13:12;4.70;99.90
5276;DHT22;2661;50.786;12.728;2023-12-20T00:15:39;4.70;99.90
5276;DHT22;2661;50.786;12.728;2023-12-20T00:18:06;4.80;99.90
5276;DHT22;2661;50.786;12.728;2023-12-20T00:20:32;4.70;99.90
5276;DHT22;2661;50.786;12.728;2023-12-20T00:22:59;4.70;1.00
5276;DHT22;2661;50.786;12.728;2023-12-20T00:25:25;4.70;99.90
5276;DHT22;2661;50.786;12.728;2023-12-20T00:27:52;4.70;99.90
5276;DHT22;2661;50.786;12.728;2023-12-20T00:30:19;4.70;99.90
5276;DHT22;2661;50.786;12.728;2023-12-20T00:32:45;4.80;99.90
5276;DHT22;2661;50.786;12.728;2023-12-20T00:35:15;4.70;99.90
5276;DHT22;2661;50.786;12.728;2023-12-20T00:37:42;4.80;99.90
5276;DHT22;2661;50.786;12.728;2023-12-20T00:40:10;4.70;99.90
5276;DHT22;2661;50.786;12.728;2023-12-20T00:42:36;4.70;99.90
5276;DHT22;2661;50.786;12.728;2023-12-20T00:45:03;4.70;99.90
5276;DHT22;2661;50.786;12.728;2023-12-20T00:47:31;4.70;99.90
5276;DHT22;2661;50.786;12.728;2023-12-20T00:49:57;4.70;99.90
5276;DHT22;2661;50.786;12.728;2023-12-20T00:52:24;4.70;99.90
5276;DHT22;2661;50.786;12.728;2023-12-20T00:54:52;4.70;99.90
5276;DHT22;2661;50.786;12.728;2023-12-20T00:57:18;4.70;99.90
5276;DHT22;2661;50.786;12.728;2023-12-20T00:59:45;4.70;99.90
5276;DHT22;2661;50.786;12.728;2023-12-20T01:02:12;4.70;99.90
5276;DHT22;2661;50.786;12.728;2023-12-20T01:04:38;4.70;99.90
5276;DHT22;2661;50.786;12.728;2023-12-20T01:07:05;4.60;99.90
5276;DHT22;2661;50.786;12.728;2023-12-20T01:09:32;4.60;99.90
5276;DHT22;2661;50.786;12.728;2023-12-20T01:11:58;4.60;99.90
5276;DHT22;2661;50.786;12.728;2023-12-20T01:14:25;4.60;1.00
5276;DHT22;2661;50.786;12.728;2023-12-20T01:16:52;4.60;99.90
5276;DHT22;2661;50.786;12.728;2023-12-20T01:19:18;4.60;1.00
5276;DHT22;2661;50.786;12.728;2023-12-20T01:21:45;4.60;1.00
5276;DHT22;2661;50.786;12.728;2023-12-20T01:24:11;4.60;99.90
5276;DHT22;2661;50.786;12.728;2023-12-20T01:26:38;4.60;99.90
5276;DHT22;2661;50.786;12.728;2023-12-20T01:29:05;4.60;99.90
5276;DHT22;2661;50.786;12.728;2023-12-20T01:31:31;4.60;99.90
5276;DHT22;2661;50.786;12.728;2023-12-20T01:33:58;4.60;99.90
5276;DHT22;2661;50.786;12.728;2023-12-20T01:36:25;4.60;99.90
5276;DHT22;2661;50.786;12.728;2023-12-20T01:38:51;4.50;99.90
5276;DHT22;2661;50.786;12.728;2023-12-20T01:41:18;4.50;99.90
5276;DHT22;2661;50.786;12.728;2023-12-20T01:43:44;4.50;99.90
5276;DHT22;2661;50.786;12.728;2023-12-20T01:46:17;4.50;99.90
5276;DHT22;2661;50.786;12.728;2023-12-20T01:48:45;4.60;99.90
5276;DHT22;2661;50.786;12.728;2023-12-20T01:51:11;4.50;99.90
5276;DHT22;2661;50.786;12.728;2023-12-20T01:53:38;4.50;99.90
5276;DHT22;2661;50.786;12.728;2023-12-20T01:56:06;4.50;99.90
5276;DHT22;2661;50.786;12.728;2023-12-20T01:58:33;4.50;99.90
5276;DHT22;2661;50.786;12.728;2023-12-20T02:01:00;4.50;99.90
5276;DHT22;2661;50.786;12.728;2023-12-20T02:03:26;4.50;99.90
5276;DHT22;2661;50.786;12.728;2023-12-20T02:05:53;4.50;99.90
5276;DHT22;2661;50.786;12.728;2023-12-20T02:08:20;4.50;99.90
5276;DHT22;2661;50.786;12.728;2023-12-20T02:10:46;4.50;99.90
5276;DHT22;2661;50.786;12.728;2023-12-20T02:13:13;4.40;99.90
5276;DHT22;2661;50.786;12.728;2023-12-20T02:15:40;4.40;99.90
5276;DHT22;2661;50.786;12.728;2023-12-20T02:18:10;4.40;99.90
5276;DHT22;2661;50.786;12.728;2023-12-20T02:20:36;4.30;99.90
5276;DHT22;2661;50.786;12.728;2023-12-20T02:23:03;4.30;99.90
5276;DHT22;2661;50.786;12.728;2023-12-20T02:25:30;4.20;1.00
5276;DHT22;2661;50.786;12.728;2023-12-20T02:27:56;4.30;1.00
5276;DHT22;2661;50.786;12.728;2023-12-20T02:30:23;4.30;1.00
5276;DHT22;2661;50.786;12.728;2023-12-20T02:32:50;4.30;1.00
5276;DHT22;2661;50.786;12.728;2023-12-20T02:35:17;4.30;1.00
5276;DHT22;2661;50.786;12.728;2023-12-20T02:37:44;4.30;1.00
5276;DHT22;2661;50.786;12.728;2023-12-20T02:40:11;4.30;1.00
5276;DHT22;2661;50.786;12.728;2023-12-20T02:42:38;4.30;1.00
5276;DHT22;2661;50.786;12.728;2023-12-20T02:45:04;4.40;1.00
5276;DHT22;2661;50.786;12.728;2023-12-20T02:47:31;4.30;99.90
5276;DHT22;2661;50.786;12.728;2023-12-20T02:49:58;4.30;1.00
5276;DHT22;2661;50.786;12.728;2023-12-20T02:52:25;4.40;1.00
5276;DHT22;2661;50.786;12.728;2023-12-20T02:54:51;4.30;1.00
5276;DHT22;2661;50.786;12.728;2023-12-20T02:57:18;4.40;1.00
5276;DHT22;2661;50.786;12.728;2023-12-20T02:59:45;4.30;1.00
5276;DHT22;2661;50.786;12.728;2023-12-20T03:02:11;4.30;1.00
5276;DHT22;2661;50.786;12.728;2023-12-20T03:04:38;4.30;1.00
5276;DHT22;2661;50.786;12.728;2023-12-20T03:07:05;4.30;1.00
5276;DHT22;2661;50.786;12.728;2023-12-20T03:09:31;4.30;1.00
5276;DHT22;2661;50.786;12.728;2023-12-20T03:12:18;4.40;1.00
5276;DHT22;2661;50.786;12.728;2023-12-20T03:14:45;4.30;1.00
5276;DHT22;2661;50.786;12.728;2023-12-20T03:17:11;4.30;1.00
5276;DHT22;2661;50.786;12.728;2023-12-20T03:19:38;4.30;1.00
5276;DHT22;2661;50.786;12.728;2023-12-20T03:22:05;4.30;1.00
5276;DHT22;2661;50.786;12.728;2023-12-20T03:24:31;4.30;1.00
5276;DHT22;2661;50.786;12.728;2023-12-20T03:26:58;4.30;1.00
5276;DHT22;2661;50.786;12.728;2023-12-20T03:29:24;4.30;1.00
5276;DHT22;2661;50.786;12.728;2023-12-20T03:31:51;4.30;1.00
5276;DHT22;2661;50.786;12.728;2023-12-20T03:34:18;4.30;1.00
5276;DHT22;2661;50.786;12.728;2023-12-20T03:36:44;4.30;1.00
5276;DHT22;2661;50.786;12.728;2023-12-20T03:39:14;4.30;1.00
5276;DHT22;2661;50.786;12.728;2023-12-20T03:41:40;4.30;1.00
5276;DHT22;2661;50.786;12.728;2023-12-20T03:44:07;4.30;1.00
5276;DHT22;2661;50.786;12.728;2023-12-20T03:46:34;4.30;1.00
5276;DHT22;2661;50.786;12.728;2023-12-20T03:49:00;4.30;1.00
5276;DHT22;2661;50.786;12.728;2023-12-20T03:51:30;4.20;1.00
5276;DHT22;2661;50.786;12.728;2023-12-20T03:53:56;4.30;1.00
5276;DHT22;2661;50.786;12.728;2023-12-20T03:56:23;4.30;1.00
5276;DHT22;2661;50.786;12.728;2023-12-20T03:58:49;4.30;1.00
5276;DHT22;2661;50.786;12.728;2023-12-20T04:01:16;4.30;1.00
5276;DHT22;2661;50.786;12.728;2023-12-20T04:03:43;4.30;1.00
5276;DHT22;2661;50.786;12.728;2023-12-20T04:06:09;4.30;1.00
5276;DHT22;2661;50.786;12.728;2023-12-20T04:08:36;4.30;1.00
5276;DHT22;2661;50.786;12.728;2023-12-20T04:11:03;4.30;1.00
5276;DHT22;2661;50.786;12.728;2023-12-20T04:13:29;4.30;1.00
5276;DHT22;2661;50.786;12.728;2023-12-20T04:15:56;4.30;1.00
5276;DHT22;2661;50.786;12.728;2023-12-20T04:18:23;4.30;1.00
5276;DHT22;2661;50.786;12.728;2023-12-20T04:20:49;4.30;1.00
5276;DHT22;2661;50.786;12.728;2023-12-20T04:23:18;4.30;1.00
5276;DHT22;2661;50.786;12.728;2023-12-20T04:25:45;4.40;1.00
5276;DHT22;2661;50.786;12.728;2023-12-20T04:28:13;4.40;1.00
5276;DHT22;2661;50.786;12.728;2023-12-20T04:30:39;4.40;1.00
5276;DHT22;2661;50.786;12.728;2023-12-20T04:33:06;4.40;1.00
5276;DHT22;2661;50.786;12.728;2023-12-20T04:35:33;4.40;1.00
5276;DHT22;2661;50.786;12.728;2023-12-20T04:37:59;4.40;1.00
5276;DHT22;2661;50.786;12.728;2023-12-20T04:40:26;4.40;1.00
5276;DHT22;2661;50.786;12.728;2023-12-20T04:42:53;4.40;1.00
5276;DHT22;2661;50.786;12.728;2023-12-20T04:45:19;4.30;1.00
5276;DHT22;2661;50.786;12.728;2023-12-20T04:47:46;4.30;1.00
5276;DHT22;2661;50.786;12.728;2023-12-20T04:50:14;4.30;1.00
5276;DHT22;2661;50.786;12.728;2023-12-20T04:52:41;4.30;1.00
5276;DHT22;2661;50.786;12.728;2023-12-20T04:55:08;4.30;1.00
5276;DHT22;2661;50.786;12.728;2023-12-20T04:57:35;4.30;1.00
5276;DHT22;2661;50.786;12.728;2023-12-20T05:00:02;4.30;1.00
5276;DHT22;2661;50.786;12.728;2023-12-20T05:02:29;4.30;22.20
5276;DHT22;2661;50.786;12.728;2023-12-20T05:04:56;4.30;99.90
5276;DHT22;2661;50.786;12.728;2023-12-20T05:07:23;4.30;99.90
5276;DHT22;2661;50.786;12.728;2023-12-20T05:09:49;4.30;99.90
5276;DHT22;2661;50.786;12.728;2023-12-20T05:12:16;4.40;99.90
5276;DHT22;2661;50.786;12.728;2023-12-20T05:14:43;4.40;99.90
5276;DHT22;2661;50.786;12.728;2023-12-20T05:17:09;4.40;99.90
5276;DHT22;2661;50.786;12.728;2023-12-20T05:19:36;4.40;99.90
5276;DHT22;2661;50.786;12.728;2023-12-20T05:22:03;4.40;99.90
5276;DHT22;2661;50.786;12.728;2023-12-20T05:24:29;4.40;99.90
5276;DHT22;2661;50.786;12.728;2023-12-20T05:26:56;4.30;99.90
5276;DHT22;2661;50.786;12.728;2023-12-20T05:29:23;4.40;1.00
5276;DHT22;2661;50.786;12.728;2023-12-20T05:31:49;4.40;99.90
5276;DHT22;2661;50.786;12.728;2023-12-20T05:34:16;4.40;99.90
5276;DHT22;2661;50.786;12.728;2023-12-20T05:36:42;4.40;99.90
5276;DHT22;2661;50.786;12.728;2023-12-20T05:39:09;4.50;99.90
5276;DHT22;2661;50.786;12.728;2023-12-20T05:41:36;4.50;99.90
5276;DHT22;2661;50.786;12.728;2023-12-20T05:44:02;4.40;99.90
5276;DHT22;2661;50.786;12.728;2023-12-20T05:46:29;4.50;99.90
5276;DHT22;2661;50.786;12.728;2023-12-20T05:48:55;4.40;99.90
5276;DHT22;2661;50.786;12.728;2023-12-20T05:51:22;4.40;1.00
5276;DHT22;2661;50.786;12.728;2023-12-20T05:53:49;4.40;1.00
5276;DHT22;2661;50.786;12.728;2023-12-20T05:56:16;4.40;1.00
5276;DHT22;2661;50.786;12.728;2023-12-20T05:58:42;4.40;1.00
5276;DHT22;2661;50.786;12.728;2023-12-20T06:01:10;4.50;1.00
5276;DHT22;2661;50.786;12.728;2023-12-20T06:03:36;4.50;99.90
5276;DHT22;2661;50.786;12.728;2023-12-20T06:06:06;4.50;99.90
5276;DHT22;2661;50.786;12.728;2023-12-20T06:08:42;4.50;99.90
5276;DHT22;2661;50.786;12.728;2023-12-20T06:11:10;4.50;99.90
5276;DHT22;2661;50.786;12.728;2023-12-20T06:13:36;4.50;99.90
5276;DHT22;2661;50.786;12.728;2023-12-20T06:16:05;4.50;99.90
5276;DHT22;2661;50.786;12.728;2023-12-20T06:18:31;4.50;99.90
5276;DHT22;2661;50.786;12.728;2023-12-20T06:20:58;4.60;99.90
5276;DHT22;2661;50.786;12.728;2023-12-20T06:23:25;4.60;99.90
5276;DHT22;2661;50.786;12.728;2023-12-20T06:25:51;4.50;92.20
5276;DHT22;2661;50.786;12.728;2023-12-20T06:28:18;4.50;99.90
5276;DHT22;2661;50.786;12.728;2023-12-20T06:30:45;4.50;99.90
5276;DHT22;2661;50.786;12.728;2023-12-20T06:33:13;4.50;99.90
5276;DHT22;2661;50.786;12.728;2023-12-20T06:35:40;4.50;99.90
5276;DHT22;2661;50.786;12.728;2023-12-20T06:38:07;4.50;99.90
5276;DHT22;2661;50.786;12.728;2023-12-20T06:40:33;4.50;99.90
5276;DHT22;2661;50.786;12.728;2023-12-20T06:43:00;4.50;99.90
5276;DHT22;2661;50.786;12.728;2023-12-20T06:45:38;4.50;99.90
5276;DHT22;2661;50.786;12.728;2023-12-20T06:48:04;4.40;99.90
5276;DHT22;2661;50.786;12.728;2023-12-20T06:50:31;4.50;99.90
5276;DHT22;2661;50.786;12.728;2023-12-20T06:52:58;4.40;99.90
5276;DHT22;2661;50.786;12.728;2023-12-20T06:55:24;4.40;99.90
5276;DHT22;2661;50.786;12.728;2023-12-20T06:57:51;4.40;99.90
5276;DHT22;2661;50.786;12.728;2023-12-20T07:00:18;4.50;99.90
5276;DHT22;2661;50.786;12.728;2023-12-20T07:02:46;4.50;99.90
5276;DHT22;2661;50.786;12.728;2023-12-20T07:05:16;4.50;99.90
5276;DHT22;2661;50.786;12.728;2023-12-20T07:07:42;4.40;99.90
5276;DHT22;2661;50.786;12.728;2023-12-20T07:10:10;4.40;99.90
5276;DHT22;2661;50.786;12.728;2023-12-20T07:12:37;4.50;94.50
5276;DHT22;2661;50.786;12.728;2023-12-20T07:15:03;4.50;98.90
5276;DHT22;2661;50.786;12.728;2023-12-20T07:17:32;4.40;52.90
5276;DHT22;2661;50.786;12.728;2023-12-20T07:20:00;4.50;46.70
5276;DHT22;2661;50.786;12.728;2023-12-20T07:22:30;4.50;91.90
5276;DHT22;2661;50.786;12.728;2023-12-20T07:25:00;4.50;90.50
5276;DHT22;2661;50.786;12.728;2023-12-20T07:27:27;4.50;74.80
5276;DHT22;2661;50.786;12.728;2023-12-20T07:29:54;4.50;1.00
5276;DHT22;2661;50.786;12.728;2023-12-20T07:32:20;4.50;1.00
5276;DHT22;2661;50.786;12.728;2023-12-20T07:34:47;4.50;1.00
5276;DHT22;2661;50.786;12.728;2023-12-20T07:37:14;4.50;1.00
5276;DHT22;2661;50.786;12.728;2023-12-20T07:39:41;4.50;1.00
5276;DHT22;2661;50.786;12.728;2023-12-20T07:42:08;4.50;1.00
5276;DHT22;2661;50.786;12.728;2023-12-20T07:44:35;4.50;1.00
5276;DHT22;2661;50.786;12.728;2023-12-20T07:47:05;4.50;1.00
5276;DHT22;2661;50.786;12.728;2023-12-20T07:49:32;4.50;1.00
5276;DHT22;2661;50.786;12.728;2023-12-20T07:51:59;4.50;1.00
5276;DHT22;2661;50.786;12.728;2023-12-20T07:54:25;4.50;1.00
5276;DHT22;2661;50.786;12.728;2023-12-20T07:56:52;4.50;1.00
5276;DHT22;2661;50.786;12.728;2023-12-20T07:59:19;4.50;1.00
5276;DHT22;2661;50.786;12.728;2023-12-20T08:01:58;4.50;1.00
5276;DHT22;2661;50.786;12.728;2023-12-20T08:04:25;4.60;1.00
5276;DHT22;2661;50.786;12.728;2023-12-20T08:06:52;4.60;1.00
5276;DHT22;2661;50.786;12.728;2023-12-20T08:09:19;4.70;1.00
5276;DHT22;2661;50.786;12.728;2023-12-20T08:11:49;4.80;1.00
5276;DHT22;2661;50.786;12.728;2023-12-20T08:14:15;4.80;1.00
5276;DHT22;2661;50.786;12.728;2023-12-20T08:16:42;4.80;1.00
5276;DHT22;2661;50.786;12.728;2023-12-20T08:19:09;4.80;1.00
5276;DHT22;2661;50.786;12.728;2023-12-20T08:21:36;4.80;1.00
5276;DHT22;2661;50.786;12.728;2023-12-20T08:24:04;4.80;1.00
5276;DHT22;2661;50.786;12.728;2023-12-20T08:26:32;4.80;1.00
5276;DHT22;2661;50.786;12.728;2023-12-20T08:28:58;4.90;1.00
5276;DHT22;2661;50.786;12.728;2023-12-20T08:31:28;4.90;1.00
5276;DHT22;2661;50.786;12.728;2023-12-20T08:33:54;4.90;1.00
5276;DHT22;2661;50.786;12.728;2023-12-20T08:36:21;4.90;1.00
5276;DHT22;2661;50.786;12.728;2023-12-20T08:38:49;4.80;99.90
5276;DHT22;2661;50.786;12.728;2023-12-20T08:41:17;4.80;99.90
5276;DHT22;2661;50.786;12.728;2023-12-20T08:43:44;4.70;99.90
5276;DHT22;2661;50.786;12.728;2023-12-20T08:46:10;4.70;99.90
5276;DHT22;2661;50.786;12.728;2023-12-20T08:48:38;4.60;99.90
5276;DHT22;2661;50.786;12.728;2023-12-20T08:51:05;4.60;99.90
5276;DHT22;2661;50.786;12.728;2023-12-20T08:53:34;4.60;99.90
5276;DHT22;2661;50.786;12.728;2023-12-20T08:56:01;4.70;99.90
5276;DHT22;2661;50.786;12.728;2023-12-20T08:58:28;4.60;99.90
5276;DHT22;2661;50.786;12.728;2023-12-20T09:00:55;4.70;99.90
5276;DHT22;2661;50.786;12.728;2023-12-20T09:03:22;4.70;99.90
5276;DHT22;2661;50.786;12.728;2023-12-20T09:05:48;4.70;99.90
5276;DHT22;2661;50.786;12.728;2023-12-20T09:08:15;4.60;99.90
5276;DHT22;2661;50.786;12.728;2023-12-20T09:10:42;4.70;99.90
5276;DHT22;2661;50.786;12.728;2023-12-20T09:13:08;4.70;99.90
5276;DHT22;2661;50.786;12.728;2023-12-20T09:15:35;4.70;99.90
5276;DHT22;2661;50.786;12.728;2023-12-20T09:18:02;4.80;1.00
5276;DHT22;2661;50.786;12.728;2023-12-20T09:20:30;4.90;99.90
5276;DHT22;2661;50.786;12.728;2023-12-20T09:22:58;5.00;99.90
5276;DHT22;2661;50.786;12.728;2023-12-20T09:25:24;5.10;99.90
5276;DHT22;2661;50.786;12.728;2023-12-20T09:27:53;5.20;84.70
5276;DHT22;2661;50.786;12.728;2023-12-20T09:30:19;5.20;92.40
5276;DHT22;2661;50.786;12.728;2023-12-20T09:32:53;5.30;58.80
5276;DHT22;2661;50.786;12.728;2023-12-20T09:35:20;5.30;1.00
5276;DHT22;2661;50.786;12.728;2023-12-20T09:37:48;5.40;1.00
5276;DHT22;2661;50.786;12.728;2023-12-20T09:40:14;5.40;1.00
5276;DHT22;2661;50.786;12.728;2023-12-20T09:42:47;5.40;1.00
5276;DHT22;2661;50.786;12.728;2023-12-20T09:45:16;5.40;1.00
5276;DHT22;2661;50.786;12.728;2023-12-20T09:47:46;5.40;1.00
5276;DHT22;2661;50.786;12.728;2023-12-20T09:50:13;5.50;1.00
5276;DHT22;2661;50.786;12.728;2023-12-20T09:52:40;5.40;1.00
5276;DHT22;2661;50.786;12.728;2023-12-20T09:55:08;5.40;1.00
5276;DHT22;2661;50.786;12.728;2023-12-20T09:57:34;5.40;1.00
5276;DHT22;2661;50.786;12.728;2023-12-20T10:00:01;5.40;1.00
5276;DHT22;2661;50.786;12.728;2023-12-20T10:02:28;5.40;1.00
5276;DHT22;2661;50.786;12.728;2023-12-20T10:04:56;5.40;1.00
5276;DHT22;2661;50.786;12.728;2023-12-20T10:07:23;5.40;1.00
5276;DHT22;2661;50.786;12.728;2023-12-20T10:09:51;5.40;23.90
5276;DHT22;2661;50.786;12.728;2023-12-20T10:12:20;5.40;1.00
5276;DHT22;2661;50.786;12.728;2023-12-20T10:14:47;5.40;1.00
5276;DHT22;2661;50.786;12.728;2023-12-20T10:17:13;5.40;1.00
5276;DHT22;2661;50.786;12.728;2023-12-20T10:19:40;5.50;1.00
5276;DHT22;2661;50.786;12.728;2023-12-20T10:22:07;5.40;1.00
5276;DHT22;2661;50.786;12.728;2023-12-20T10:24:33;5.50;1.00
5276;DHT22;2661;50.786;12.728;2023-12-20T10:27:04;5.50;1.00
5276;DHT22;2661;50.786;12.728;2023-12-20T10:29:34;5.50;1.00
5276;DHT22;2661;50.786;12.728;2023-12-20T10:34:51;5.60;1.00
5276;DHT22;2661;50.786;12.728;2023-12-20T10:37:18;5.60;1.00
5276;DHT22;2661;50.786;12.728;2023-12-20T10:39:49;5.60;1.00
5276;DHT22;2661;50.786;12.728;2023-12-20T10:42:16;5.60;1.00
5276;DHT22;2661;50.786;12.728;2023-12-20T10:44:43;5.60;1.00
5276;DHT22;2661;50.786;12.728;2023-12-20T10:47:10;5.70;1.00
5276;DHT22;2661;50.786;12.728;2023-12-20T10:49:38;5.70;1.00
5276;DHT22;2661;50.786;12.728;2023-12-20T10:52:06;5.70;1.00
5276;DHT22;2661;50.786;12.728;2023-12-20T10:54:33;5.70;1.00
5276;DHT22;2661;50.786;12.728;2023-12-20T10:57:00;5.70;1.00
5276;DHT22;2661;50.786;12.728;2023-12-20T10:59:27;5.80;1.00
5276;DHT22;2661;50.786;12.728;2023-12-20T11:01:54;5.80;1.00
5276;DHT22;2661;50.786;12.728;2023-12-20T11:04:24;5.90;1.00
5276;DHT22;2661;50.786;12.728;2023-12-20T11:06:53;5.80;31.10
5276;DHT22;2661;50.786;12.728;2023-12-20T11:09:22;5.90;10.80
5276;DHT22;2661;50.786;12.728;2023-12-20T11:12:11;5.90;50.90
5276;DHT22;2661;50.786;12.728;2023-12-20T11:17:09;5.90;1.00
5276;DHT22;2661;50.786;12.728;2023-12-20T11:19:43;5.90;12.70
5276;DHT22;2661;50.786;12.728;2023-12-20T11:22:10;5.90;1.00
5276;DHT22;2661;50.786;12.728;2023-12-20T11:24:38;6.00;1.00
5276;DHT22;2661;50.786;12.728;2023-12-20T11:27:10;6.00;1.00
5276;DHT22;2661;50.786;12.728;2023-12-20T11:29:37;6.00;1.00
5276;DHT22;2661;50.786;12.728;2023-12-20T11:32:27;6.00;1.00
5276;DHT22;2661;50.786;12.728;2023-12-20T11:37:38;6.10;1.00
5276;DHT22;2661;50.786;12.728;2023-12-20T11:40:07;6.20;1.00
5276;DHT22;2661;50.786;12.728;2023-12-20T11:42:39;6.20;1.00
5276;DHT22;2661;50.786;12.728;2023-12-20T11:45:13;6.20;1.00
5276;DHT22;2661;50.786;12.728;2023-12-20T11:47:45;6.20;1.00
5276;DHT22;2661;50.786;12.728;2023-12-20T11:50:13;6.20;1.00
5276;DHT22;2661;50.786;12.728;2023-12-20T11:52:40;6.20;1.00
5276;DHT22;2661;50.786;12.728;2023-12-20T11:55:11;6.10;1.00
5276;DHT22;2661;50.786;12.728;2023-12-20T11:57:39;6.10;1.00
5276;DHT22;2661;50.786;12.728;2023-12-20T12:00:06;6.10;1.00
5276;DHT22;2661;50.786;12.728;2023-12-20T12:02:33;6.00;1.00
5276;DHT22;2661;50.786;12.728;2023-12-20T12:04:59;6.00;1.00
5276;DHT22;2661;50.786;12.728;2023-12-20T12:07:26;6.00;1.00
5276;DHT22;2661;50.786;12.728;2023-12-20T12:09:53;6.00;30.10
5276;DHT22;2661;50.786;12.728;2023-12-20T12:12:19;6.00;1.00
5276;DHT22;2661;50.786;12.728;2023-12-20T12:14:46;6.00;1.00
5276;DHT22;2661;50.786;12.728;2023-12-20T12:17:13;6.00;1.00
5276;DHT22;2661;50.786;12.728;2023-12-20T12:19:40;6.00;1.00
5276;DHT22;2661;50.786;12.728;2023-12-20T12:22:08;6.00;1.00
5276;DHT22;2661;50.786;12.728;2023-12-20T12:24:40;6.00;1.00
5276;DHT22;2661;50.786;12.728;2023-12-20T12:27:07;6.00;1.00
5276;DHT22;2661;50.786;12.728;2023-12-20T12:29:34;6.00;1.00
5276;DHT22;2661;50.786;12.728;2023-12-20T12:32:01;6.00;1.00
5276;DHT22;2661;50.786;12.728;2023-12-20T12:34:31;6.10;1.00
5276;DHT22;2661;50.786;12.728;2023-12-20T12:36:58;6.10;1.00
5276;DHT22;2661;50.786;12.728;2023-12-20T12:39:24;6.10;1.00
5276;DHT22;2661;50.786;12.728;2023-12-20T12:41:52;6.10;1.00
5276;DHT22;2661;50.786;12.728;2023-12-20T12:44:19;6.10;1.00
5276;DHT22;2661;50.786;12.728;2023-12-20T12:46:46;6.10;1.00
5276;DHT22;2661;50.786;12.728;2023-12-20T12:49:13;6.10;1.00
5276;DHT22;2661;50.786;12.728;2023-12-20T12:51:39;6.20;1.00
5276;DHT22;2661;50.786;12.728;2023-12-20T12:54:06;6.20;1.00
5276;DHT22;2661;50.786;12.728;2023-12-20T12:56:32;6.20;1.00
5276;DHT22;2661;50.786;12.728;2023-12-20T12:58:59;6.20;1.00
5276;DHT22;2661;50.786;12.728;2023-12-20T13:01:26;6.20;1.00
5276;DHT22;2661;50.786;12.728;2023-12-20T13:03:52;6.30;1.00
5276;DHT22;2661;50.786;12.728;2023-12-20T13:06:19;6.20;1.00
5276;DHT22;2661;50.786;12.728;2023-12-20T13:08:46;6.30;1.00
5276;DHT22;2661;50.786;12.728;2023-12-20T13:11:12;6.30;1.00
5276;DHT22;2661;50.786;12.728;2023-12-20T13:13:39;6.30;1.00
5276;DHT22;2661;50.786;12.728;2023-12-20T13:16:06;6.30;29.90
5276;DHT22;2661;50.786;12.728;2023-12-20T13:18:32;6.30;1.00
5276;DHT22;2661;50.786;12.728;2023-12-20T13:20:59;6.30;99.90
5276;DHT22;2661;50.786;12.728;2023-12-20T13:23:26;6.30;1.00
5276;DHT22;2661;50.786;12.728;2023-12-20T13:25:52;6.30;1.00
5276;DHT22;2661;50.786;12.728;2023-12-20T13:28:19;6.20;1.00
5276;DHT22;2661;50.786;12.728;2023-12-20T13:30:46;6.20;1.00
5276;DHT22;2661;50.786;12.728;2023-12-20T13:33:12;6.10;1.00
5276;DHT22;2661;50.786;12.728;2023-12-20T13:35:39;6.10;1.00
5276;DHT22;2661;50.786;12.728;2023-12-20T13:38:06;6.00;1.00
5276;DHT22;2661;50.786;12.728;2023-12-20T13:40:32;6.00;1.00
5276;DHT22;2661;50.786;12.728;2023-12-20T13:42:59;6.00;1.00
5276;DHT22;2661;50.786;12.728;2023-12-20T13:45:26;6.00;1.00
5276;DHT22;2661;50.786;12.728;2023-12-20T13:47:52;5.90;1.00
5276;DHT22;2661;50.786;12.728;2023-12-20T13:50:19;6.00;1.00
5276;DHT22;2661;50.786;12.728;2023-12-20T13:52:46;6.00;1.00
5276;DHT22;2661;50.786;12.728;2023-12-20T13:55:13;6.00;1.00
5276;DHT22;2661;50.786;12.728;2023-12-20T13:57:39;5.90;1.00
5276;DHT22;2661;50.786;12.728;2023-12-20T14:00:21;6.00;1.00
5276;DHT22;2661;50.786;12.728;2023-12-20T14:02:48;6.00;1.00
5276;DHT22;2661;50.786;12.728;2023-12-20T14:05:15;6.00;1.00
5276;DHT22;2661;50.786;12.728;2023-12-20T14:07:44;5.90;1.00
5276;DHT22;2661;50.786;12.728;2023-12-20T14:10:12;5.90;1.00
5276;DHT22;2661;50.786;12.728;2023-12-20T14:12:39;5.90;1.00
5276;DHT22;2661;50.786;12.728;2023-12-20T14:15:06;5.90;1.00
5276;DHT22;2661;50.786;12.728;2023-12-20T14:17:38;5.90;1.00
5276;DHT22;2661;50.786;12.728;2023-12-20T14:20:05;5.90;1.00
5276;DHT22;2661;50.786;12.728;2023-12-20T14:22:33;5.80;1.00
5276;DHT22;2661;50.786;12.728;2023-12-20T14:24:59;5.80;1.00
5276;DHT22;2661;50.786;12.728;2023-12-20T14:27:26;5.80;1.00
5276;DHT22;2661;50.786;12.728;2023-12-20T14:29:54;5.70;1.00
5276;DHT22;2661;50.786;12.728;2023-12-20T14:32:21;5.70;1.00
5276;DHT22;2661;50.786;12.728;2023-12-20T14:34:47;5.70;1.00
5276;DHT22;2661;50.786;12.728;2023-12-20T14:37:14;5.60;1.00
5276;DHT22;2661;50.786;12.728;2023-12-20T14:39:41;5.60;1.00
5276;DHT22;2661;50.786;12.728;2023-12-20T14:42:08;5.60;1.00
5276;DHT22;2661;50.786;12.728;2023-12-20T14:44:40;5.50;1.00
5276;DHT22;2661;50.786;12.728;2023-12-20T14:47:07;5.50;1.00
5276;DHT22;2661;50.786;12.728;2023-12-20T14:49:34;5.50;1.00
5276;DHT22;2661;50.786;12.728;2023-12-20T14:52:01;5.50;1.00
5276;DHT22;2661;50.786;12.728;2023-12-20T14:54:27;5.50;1.00
5276;DHT22;2661;50.786;12.728;2023-12-20T14:56:54;5.50;1.00
5276;DHT22;2661;50.786;12.728;2023-12-20T14:59:20;5.40;1.00
5276;DHT22;2661;50.786;12.728;2023-12-20T15:01:48;5.40;1.00
5276;DHT22;2661;50.786;12.728;2023-12-20T15:04:15;5.50;1.00
5276;DHT22;2661;50.786;12.728;2023-12-20T15:06:41;5.40;1.00
5276;DHT22;2661;50.786;12.728;2023-12-20T15:09:09;5.40;1.00
5276;DHT22;2661;50.786;12.728;2023-12-20T15:11:36;5.40;1.00
5276;DHT22;2661;50.786;12.728;2023-12-20T15:14:03;5.30;1.00
5276;DHT22;2661;50.786;12.728;2023-12-20T15:16:29;5.30;1.00
5276;DHT22;2661;50.786;12.728;2023-12-20T15:18:56;5.30;1.00
5276;DHT22;2661;50.786;12.728;2023-12-20T15:21:23;5.20;1.00
5276;DHT22;2661;50.786;12.728;2023-12-20T15:23:58;5.20;1.00
5276;DHT22;2661;50.786;12.728;2023-12-20T15:26:32;5.20;1.00
5276;DHT22;2661;50.786;12.728;2023-12-20T15:28:59;5.20;1.00
5276;DHT22;2661;50.786;12.728;2023-12-20T15:31:27;5.20;1.00
5276;DHT22;2661;50.786;12.728;2023-12-20T15:33:54;5.20;1.00
5276;DHT22;2661;50.786;12.728;2023-12-20T15:36:21;5.20;1.00
5276;DHT22;2661;50.786;12.728;2023-12-20T15:38:48;5.20;1.00
5276;DHT22;2661;50.786;12.728;2023-12-20T15:41:18;5.30;1.00
5276;DHT22;2661;50.786;12.728;2023-12-20T15:43:45;5.20;1.00
5276;DHT22;2661;50.786;12.728;2023-12-20T15:46:11;5.20;1.00
5276;DHT22;2661;50.786;12.728;2023-12-20T15:48:38;5.30;1.00
5276;DHT22;2661;50.786;12.728;2023-12-20T15:51:05;5.30;1.00
5276;DHT22;2661;50.786;12.728;2023-12-20T15:53:32;5.30;1.00
5276;DHT22;2661;50.786;12.728;2023-12-20T15:55:58;5.30;1.00
5276;DHT22;2661;50.786;12.728;2023-12-20T15:58:25;5.30;1.00
5276;DHT22;2661;50.786;12.728;2023-12-20T16:00:53;5.30;1.00
5276;DHT22;2661;50.786;12.728;2023-12-20T16:03:20;5.30;1.00
5276;DHT22;2661;50.786;12.728;2023-12-20T16:05:52;5.30;1.00
5276;DHT22;2661;50.786;12.728;2023-12-20T16:08:18;5.30;1.00
5276;DHT22;2661;50.786;12.728;2023-12-20T16:10:45;5.30;1.00
5276;DHT22;2661;50.786;12.728;2023-12-20T16:13:11;5.30;1.00
5276;DHT22;2661;50.786;12.728;2023-12-20T16:15:38;5.30;1.00
5276;DHT22;2661;50.786;12.728;2023-12-20T16:18:05;5.30;1.00
5276;DHT22;2661;50.786;12.728;2023-12-20T16:20:35;5.30;1.00